Time;durP1;ratioP1;P1;durP2;ratioP2;P2;SDS_P1;SDS_P2;PMS_P1;PMS_P2;Temp;Humidity;BMP_temperature;BMP_pressure;BME280_temperature;BME280_humidity;BME280_pressure;Samples;Min_cycle;Max_cycle;Signal;HPM_P1;HPM_P2
2021/07/18 00:01:14;;;;;;;2.28;1.30;;;20.40;99.90;;;;;;5051651;28;20029;-64
2021/07/18 00:03:39;;;;;;;1.70;1.05;;;20.40;99.90;;;;;;5033460;28;20035;-65
2021/07/18 00:06:05;;;;;;;2.47;1.00;;;20.40;99.90;;;;;;5034835;28;20067;-65
2021/07/18 00:08:31;;;;;;;1.90;0.90;;;20.40;99.90;;;;;;5053554;28;20159;-66
2021/07/18 00:10:57;;;;;;;3.28;1.10;;;20.40;99.90;;;;;;5052610;28;20025;-65
2021/07/18 00:13:22;;;;;;;1.17;0.88;;;20.30;99.90;;;;;;5045392;28;20031;-65
2021/07/18 00:15:49;;;;;;;3.78;1.45;;;20.20;99.90;;;;;;5043051;28;20119;-65
2021/07/18 00:18:15;;;;;;;1.58;0.95;;;20.20;99.90;;;;;;5022703;28;20025;-65
2021/07/18 00:20:41;;;;;;;2.40;1.42;;;20.20;99.90;;;;;;5024209;28;20071;-63
2021/07/18 00:23:07;;;;;;;3.08;1.33;;;20.10;99.90;;;;;;5019905;28;20087;-65
2021/07/18 00:25:33;;;;;;;4.72;1.45;;;20.10;99.90;;;;;;5039402;28;20390;-64
2021/07/18 00:27:59;;;;;;;2.63;1.10;;;20.10;99.90;;;;;;5038488;28;20029;-66
2021/07/18 00:30:25;;;;;;;2.00;1.05;;;20.10;99.90;;;;;;5023149;28;20029;-65
2021/07/18 00:32:51;;;;;;;5.38;1.80;;;20.10;99.90;;;;;;5040713;28;20048;-65
2021/07/18 00:35:17;;;;;;;2.13;1.05;;;20.10;99.90;;;;;;5038753;28;20037;-66
2021/07/18 00:37:42;;;;;;;4.55;1.17;;;20.00;99.90;;;;;;5040149;28;20025;-65
2021/07/18 00:40:09;;;;;;;4.28;1.63;;;20.00;99.90;;;;;;5022739;28;20024;-64
2021/07/18 00:42:35;;;;;;;4.07;1.02;;;20.00;99.90;;;;;;5040705;28;20025;-65
2021/07/18 00:45:02;;;;;;;6.30;1.20;;;20.00;99.90;;;;;;5041863;28;20136;-66
2021/07/18 00:47:27;;;;;;;2.85;1.02;;;19.90;99.90;;;;;;5040126;28;20407;-65
2021/07/18 00:49:53;;;;;;;1.92;1.10;;;19.80;99.90;;;;;;5019982;28;20061;-65
2021/07/18 00:52:19;;;;;;;1.50;0.80;;;19.80;99.90;;;;;;5035846;28;20025;-66
2021/07/18 00:54:46;;;;;;;3.88;1.42;;;19.80;99.90;;;;;;5041503;28;20052;-65
2021/07/18 00:57:12;;;;;;;2.50;1.17;;;19.90;99.90;;;;;;5021750;28;20033;-64
2021/07/18 00:59:38;;;;;;;2.22;1.30;;;19.70;99.90;;;;;;5028606;28;20035;-64
2021/07/18 01:02:05;;;;;;;3.80;1.25;;;19.60;99.90;;;;;;5033249;28;20049;-64
2021/07/18 01:04:31;;;;;;;5.28;1.35;;;19.70;99.90;;;;;;5033900;28;20029;-65
2021/07/18 01:06:57;;;;;;;2.53;1.23;;;19.60;99.90;;;;;;5051628;28;20493;-66
2021/07/18 01:09:26;;;;;;;2.80;1.13;;;19.60;99.90;;;;;;5051871;28;20071;-64
2021/07/18 01:11:53;;;;;;;2.53;0.90;;;19.60;99.90;;;;;;5033892;28;20124;-64
2021/07/18 01:14:19;;;;;;;2.10;0.90;;;19.60;99.90;;;;;;5033780;28;20032;-64
2021/07/18 01:16:45;;;;;;;4.78;1.13;;;19.60;99.90;;;;;;5034480;28;20313;-64
2021/07/18 01:19:12;;;;;;;5.57;1.13;;;19.70;99.90;;;;;;5051326;28;20056;-64
2021/07/18 01:21:41;;;;;;;3.00;1.08;;;19.70;99.90;;;;;;5052366;28;20111;-66
2021/07/18 01:24:07;;;;;;;3.15;1.60;;;19.70;99.90;;;;;;5051803;28;20485;-65
2021/07/18 01:26:33;;;;;;;3.30;1.08;;;19.70;99.90;;;;;;5052557;28;20068;-65
2021/07/18 01:28:59;;;;;;;3.95;1.50;;;19.70;99.90;;;;;;5034584;28;20425;-65
2021/07/18 01:31:25;;;;;;;5.75;1.17;;;19.70;99.90;;;;;;5051958;28;20032;-65
2021/07/18 01:33:51;;;;;;;3.05;1.23;;;19.60;99.90;;;;;;5033706;28;20032;-65
2021/07/18 01:36:16;;;;;;;3.83;1.40;;;19.60;99.90;;;;;;5050561;28;20475;-65
2021/07/18 01:38:42;;;;;;;3.55;1.00;;;19.50;99.90;;;;;;5033410;28;20359;-64
2021/07/18 01:41:07;;;;;;;1.80;0.80;;;19.50;99.90;;;;;;5051030;28;20021;-64
2021/07/18 01:43:33;;;;;;;3.03;0.90;;;19.40;99.90;;;;;;5051544;28;20032;-64
2021/07/18 01:45:59;;;;;;;2.97;1.42;;;19.50;99.90;;;;;;5033365;28;20056;-65
2021/07/18 01:48:25;;;;;;;2.30;1.02;;;19.50;99.90;;;;;;5033496;28;20025;-65
2021/07/18 01:50:51;;;;;;;2.58;1.10;;;19.50;99.90;;;;;;5051289;28;20025;-65
2021/07/18 01:53:17;;;;;;;5.93;1.63;;;19.50;99.90;;;;;;5050263;28;20028;-65
2021/07/18 01:55:42;;;;;;;6.32;2.70;;;19.50;99.90;;;;;;5050653;28;20049;-64
2021/07/18 01:58:08;;;;;;;10.07;3.25;;;19.50;99.90;;;;;;5050803;28;20115;-65
2021/07/18 02:00:34;;;;;;;5.30;1.85;;;19.40;99.90;;;;;;5033011;28;20037;-65
2021/07/18 02:03:00;;;;;;;11.05;2.28;;;19.50;99.90;;;;;;5051106;28;20516;-65
2021/07/18 02:05:25;;;;;;;4.22;1.63;;;19.50;99.90;;;;;;5050301;28;20028;-64
2021/07/18 02:07:51;;;;;;;1.73;1.20;;;19.50;99.90;;;;;;5050557;28;20043;-65
2021/07/18 02:10:19;;;;;;;2.47;1.08;;;19.40;99.90;;;;;;5050461;28;20112;-66
2021/07/18 02:12:46;;;;;;;5.00;0.98;;;19.40;99.90;;;;;;5051025;28;20025;-65
2021/07/18 02:15:14;;;;;;;2.95;0.95;;;19.40;99.90;;;;;;5032404;28;20123;-64
2021/07/18 02:17:39;;;;;;;4.13;1.13;;;19.40;99.90;;;;;;5033223;28;20025;-64
2021/07/18 02:20:11;;;;;;;2.95;1.10;;;19.30;99.90;;;;;;5032806;28;20112;-66
2021/07/18 02:22:49;;;;;;;3.00;1.20;;;19.40;99.90;;;;;;5033623;28;20474;-65
2021/07/18 02:25:17;;;;;;;3.10;1.33;;;19.30;99.90;;;;;;5050536;28;20108;-64
2021/07/18 02:27:43;;;;;;;3.80;1.00;;;19.40;99.90;;;;;;5051234;28;20033;-66
2021/07/18 02:30:18;;;;;;;1.63;1.10;;;19.40;99.90;;;;;;5050424;28;20029;-65
2021/07/18 02:32:44;;;;;;;2.03;1.10;;;19.30;99.90;;;;;;5033046;28;20029;-64
2021/07/18 02:35:13;;;;;;;4.75;1.23;;;19.20;99.90;;;;;;5032449;28;20033;-65
2021/07/18 02:37:39;;;;;;;4.03;1.10;;;19.10;99.90;;;;;;5032954;28;20078;-64
2021/07/18 02:40:06;;;;;;;2.72;0.80;;;19.10;99.90;;;;;;5032155;28;20025;-66
2021/07/18 02:42:32;;;;;;;3.58;1.00;;;19.10;99.90;;;;;;5033211;28;20047;-65
2021/07/18 02:44:57;;;;;;;3.67;1.50;;;19.10;99.90;;;;;;5033005;28;20021;-65
2021/07/18 02:47:23;;;;;;;6.63;1.85;;;19.00;99.90;;;;;;5049794;28;20337;-65
2021/07/18 02:49:49;;;;;;;2.38;0.90;;;19.00;99.90;;;;;;5050688;28;20032;-65
2021/07/18 02:52:15;;;;;;;2.83;1.48;;;19.00;99.90;;;;;;5032217;28;20375;-64
2021/07/18 02:54:41;;;;;;;3.92;1.23;;;18.90;99.90;;;;;;5050375;28;20049;-64
2021/07/18 02:57:06;;;;;;;5.13;1.05;;;18.80;99.90;;;;;;5049900;28;20047;-64
2021/07/18 02:59:33;;;;;;;3.83;1.10;;;18.90;99.90;;;;;;5032587;28;20359;-65
2021/07/18 03:01:59;;;;;;;1.95;0.88;;;18.70;99.90;;;;;;5032325;28;20032;-65
2021/07/18 03:04:26;;;;;;;2.28;1.00;;;18.70;99.90;;;;;;5049926;28;20025;-64
2021/07/18 03:06:53;;;;;;;4.00;1.20;;;18.80;99.90;;;;;;5050171;28;20033;-64
2021/07/18 03:09:22;;;;;;;9.68;1.48;;;18.80;99.90;;;;;;5031990;28;20032;-65
2021/07/18 03:11:49;;;;;;;2.72;1.15;;;18.80;99.90;;;;;;5050499;28;20059;-65
2021/07/18 03:14:14;;;;;;;2.50;1.25;;;18.80;99.90;;;;;;5050036;28;20066;-65
2021/07/18 03:16:40;;;;;;;2.10;1.17;;;18.90;99.90;;;;;;5032526;28;20135;-64
2021/07/18 03:19:05;;;;;;;2.35;1.00;;;18.80;99.90;;;;;;5051104;28;20029;-71
2021/07/18 03:21:34;;;;;;;2.78;1.30;;;18.80;99.90;;;;;;5054318;28;20021;-65
2021/07/18 03:24:01;;;;;;;1.27;1.17;;;18.80;99.90;;;;;;5053841;28;20427;-65
2021/07/18 03:26:27;;;;;;;2.75;1.00;;;18.80;99.90;;;;;;5035427;28;20041;-64
2021/07/18 03:28:53;;;;;;;5.20;1.08;;;18.80;99.90;;;;;;5053861;28;20021;-65
2021/07/18 03:31:18;;;;;;;6.97;1.02;;;18.70;99.90;;;;;;5035225;28;20557;-65
2021/07/18 03:33:44;;;;;;;3.67;1.15;;;18.70;99.90;;;;;;5035617;28;20025;-64
2021/07/18 03:36:09;;;;;;;2.83;1.30;;;18.70;99.90;;;;;;5035097;28;20039;-64
2021/07/18 03:38:35;;;;;;;3.28;0.90;;;18.70;99.90;;;;;;5053663;28;20033;-65
2021/07/18 03:41:01;;;;;;;1.98;1.02;;;18.70;99.90;;;;;;5053579;28;20071;-65
2021/07/18 03:43:27;;;;;;;2.65;1.27;;;18.70;99.90;;;;;;5052971;28;20732;-66
2021/07/18 03:45:52;;;;;;;2.72;1.38;;;18.70;99.90;;;;;;5053684;28;20057;-64
2021/07/18 03:48:18;;;;;;;3.78;1.40;;;18.70;99.90;;;;;;5053353;28;20021;-64
2021/07/18 03:50:43;;;;;;;3.70;1.10;;;18.70;99.90;;;;;;5053328;28;20493;-65
2021/07/18 03:53:09;;;;;;;2.83;1.02;;;18.80;99.90;;;;;;5035061;28;20029;-64
2021/07/18 03:55:35;;;;;;;3.35;1.23;;;18.70;99.90;;;;;;5053157;28;20060;-65
2021/07/18 03:58:00;;;;;;;7.82;2.08;;;18.80;99.90;;;;;;5053184;28;20470;-65
2021/07/18 04:00:26;;;;;;;5.47;1.25;;;18.70;99.90;;;;;;5053124;28;20025;-64
2021/07/18 04:02:52;;;;;;;4.45;1.58;;;18.60;99.90;;;;;;5053583;28;20036;-65
2021/07/18 04:05:17;;;;;;;2.90;1.20;;;18.70;99.90;;;;;;5052754;28;20530;-65
2021/07/18 04:07:43;;;;;;;7.72;1.55;;;18.70;99.90;;;;;;5035550;28;20021;-65
2021/07/18 04:10:09;;;;;;;4.57;1.40;;;18.60;99.90;;;;;;5053050;28;20095;-72
2021/07/18 04:12:35;;;;;;;3.70;1.33;;;18.60;99.90;;;;;;5053252;28;20033;-64
2021/07/18 04:15:00;;;;;;;1.90;0.90;;;18.60;99.90;;;;;;5052827;28;20091;-65
2021/07/18 04:17:26;;;;;;;3.70;1.30;;;18.50;99.90;;;;;;5034447;28;20446;-65
2021/07/18 04:19:52;;;;;;;1.85;1.40;;;18.60;99.90;;;;;;5053669;28;20025;-66
2021/07/18 04:22:17;;;;;;;2.15;0.90;;;18.50;99.90;;;;;;5034538;28;20029;-64
2021/07/18 04:24:43;;;;;;;4.28;1.13;;;18.50;99.90;;;;;;5052992;28;20418;-65
2021/07/18 04:27:08;;;;;;;2.15;0.98;;;18.70;99.90;;;;;;5052725;28;20040;-65
2021/07/18 04:29:34;;;;;;;1.67;1.10;;;18.80;99.90;;;;;;5051786;28;20029;-64
2021/07/18 04:32:00;;;;;;;3.20;1.00;;;18.80;99.90;;;;;;5052415;28;20378;-65
2021/07/18 04:34:25;;;;;;;5.65;1.30;;;18.90;99.90;;;;;;5051996;28;20477;-65
2021/07/18 04:36:51;;;;;;;3.05;1.27;;;18.90;99.90;;;;;;5052718;28;20110;-65
2021/07/18 04:39:16;;;;;;;5.18;1.45;;;18.90;99.90;;;;;;5052829;28;20024;-65
2021/07/18 04:41:42;;;;;;;3.63;1.38;;;19.00;99.90;;;;;;5053504;28;20033;-64
2021/07/18 04:44:08;;;;;;;4.18;1.00;;;19.00;99.90;;;;;;5036073;28;20028;-65
2021/07/18 04:46:33;;;;;;;4.90;1.45;;;18.90;99.90;;;;;;5036328;28;20116;-66
2021/07/18 04:48:59;;;;;;;2.17;1.10;;;18.90;99.90;;;;;;5052702;28;20363;-64
2021/07/18 04:51:24;;;;;;;3.65;1.10;;;18.90;99.90;;;;;;5033553;28;20131;-66
2021/07/18 04:53:50;;;;;;;6.72;1.17;;;18.80;99.90;;;;;;5034011;28;20029;-65
2021/07/18 04:56:17;;;;;;;6.53;1.20;;;18.70;99.90;;;;;;5051449;28;20045;-65
2021/07/18 04:58:43;;;;;;;3.42;1.08;;;18.90;99.90;;;;;;5051865;28;20113;-64
2021/07/18 05:01:09;;;;;;;3.70;1.42;;;18.80;99.90;;;;;;5052302;28;20060;-65
2021/07/18 05:03:35;;;;;;;1.08;0.77;;;19.00;99.90;;;;;;5052033;28;20017;-65
2021/07/18 05:06:05;;;;;;;3.63;1.08;;;19.00;99.90;;;;;;5052419;28;20044;-66
2021/07/18 05:08:33;;;;;;;2.30;1.10;;;19.20;99.90;;;;;;5051346;28;20116;-65
2021/07/18 05:11:03;;;;;;;6.07;1.38;;;19.30;99.90;;;;;;5034019;28;20033;-65
2021/07/18 05:13:29;;;;;;;2.72;1.05;;;19.40;99.90;;;;;;5033731;28;20114;-65
2021/07/18 05:15:54;;;;;;;2.72;1.02;;;19.30;99.90;;;;;;5052241;28;20087;-65
2021/07/18 05:18:20;;;;;;;5.70;1.23;;;19.20;99.90;;;;;;5051829;28;20109;-65
2021/07/18 05:20:46;;;;;;;5.05;1.20;;;19.40;99.90;;;;;;5033840;28;20029;-65
2021/07/18 05:23:12;;;;;;;3.13;1.08;;;19.40;99.90;;;;;;5033930;28;20052;-65
2021/07/18 05:25:38;;;;;;;4.53;1.05;;;19.50;99.90;;;;;;5033840;28;20116;-65
2021/07/18 05:28:05;;;;;;;3.88;0.77;;;19.50;99.90;;;;;;5051756;28;20519;-65
2021/07/18 05:30:31;;;;;;;5.85;1.35;;;19.60;99.90;;;;;;5033430;28;20036;-64
2021/07/18 05:32:57;;;;;;;2.50;1.20;;;19.50;99.90;;;;;;5053352;28;20032;-65
2021/07/18 05:35:23;;;;;;;4.28;1.30;;;19.70;99.90;;;;;;5051753;28;20033;-65
2021/07/18 05:37:50;;;;;;;4.82;1.58;;;19.70;99.90;;;;;;5051845;28;20029;-65
2021/07/18 05:40:16;;;;;;;2.97;1.25;;;19.70;99.90;;;;;;5051065;28;20028;-65
2021/07/18 05:42:42;;;;;;;4.28;1.35;;;19.80;99.90;;;;;;5050600;28;20036;-66
2021/07/18 05:45:12;;;;;;;3.13;0.82;;;19.80;99.90;;;;;;5051104;28;20207;-65
2021/07/18 05:47:38;;;;;;;2.35;1.00;;;19.70;99.90;;;;;;5051511;28;20035;-64
2021/07/18 05:50:06;;;;;;;1.77;1.15;;;19.80;99.90;;;;;;5051285;28;20374;-65
2021/07/18 05:52:32;;;;;;;4.60;0.98;;;19.80;99.90;;;;;;5032836;28;20028;-66
2021/07/18 05:54:58;;;;;;;3.50;0.80;;;19.90;99.90;;;;;;5051254;28;20045;-65
2021/07/18 05:57:23;;;;;;;2.20;0.98;;;20.00;99.90;;;;;;5050609;28;20043;-65
2021/07/18 05:59:49;;;;;;;3.75;1.00;;;19.90;99.90;;;;;;5051153;28;20367;-65
2021/07/18 06:02:15;;;;;;;2.90;1.55;;;20.00;99.90;;;;;;5033163;28;20383;-64
2021/07/18 06:04:42;;;;;;;2.53;1.02;;;20.00;99.90;;;;;;5051323;28;20149;-65
2021/07/18 06:07:08;;;;;;;2.70;1.10;;;20.00;99.90;;;;;;5050742;28;20121;-66
2021/07/18 06:09:34;;;;;;;3.05;0.95;;;20.10;99.90;;;;;;5032667;28;20021;-66
2021/07/18 06:12:00;;;;;;;5.30;2.17;;;20.10;99.90;;;;;;5033421;28;20208;-66
2021/07/18 06:14:25;;;;;;;4.00;1.30;;;20.10;99.90;;;;;;5032586;28;20022;-66
2021/07/18 06:16:51;;;;;;;4.20;1.15;;;20.10;99.90;;;;;;5032944;28;20032;-68
2021/07/18 06:19:17;;;;;;;2.58;1.10;;;20.30;99.90;;;;;;5032373;28;20450;-72
2021/07/18 06:21:42;;;;;;;3.90;1.30;;;20.30;99.90;;;;;;5033444;28;20052;-65
2021/07/18 06:24:08;;;;;;;2.75;0.80;;;20.30;99.90;;;;;;5051149;28;20485;-65
2021/07/18 06:26:34;;;;;;;3.92;1.10;;;20.20;99.90;;;;;;5032720;28;20044;-65
2021/07/18 06:29:00;;;;;;;3.92;0.90;;;20.10;99.90;;;;;;5034280;28;20029;-65
2021/07/18 06:31:26;;;;;;;4.80;0.90;;;20.20;99.90;;;;;;5031867;28;20029;-66
2021/07/18 06:33:52;;;;;;;5.15;1.20;;;20.20;99.90;;;;;;5050822;28;20032;-66
2021/07/18 06:36:18;;;;;;;1.17;0.75;;;20.30;99.90;;;;;;5050432;28;20076;-68
2021/07/18 06:38:44;;;;;;;1.70;0.88;;;20.30;99.90;;;;;;5050673;28;20053;-65
2021/07/18 06:41:10;;;;;;;5.03;1.35;;;20.40;99.90;;;;;;5032813;28;20052;-66
2021/07/18 06:43:36;;;;;;;4.93;1.00;;;20.50;99.90;;;;;;5050084;28;20021;-67
2021/07/18 06:46:01;;;;;;;1.92;0.90;;;20.50;99.90;;;;;;5050639;28;20040;-66
2021/07/18 06:48:27;;;;;;;1.75;0.90;;;20.60;99.90;;;;;;5031984;28;20025;-65
2021/07/18 06:50:53;;;;;;;5.63;1.08;;;20.60;99.90;;;;;;5050668;28;20100;-65
2021/07/18 06:53:18;;;;;;;3.13;0.70;;;20.80;99.90;;;;;;5049884;28;20033;-77
2021/07/18 06:55:44;;;;;;;5.28;0.80;;;20.90;99.90;;;;;;5054251;28;20049;-67
2021/07/18 06:58:10;;;;;;;3.97;1.13;;;21.00;99.90;;;;;;5054515;28;20335;-66
2021/07/18 07:00:35;;;;;;;4.50;1.20;;;21.20;99.90;;;;;;5052611;28;20024;-69
2021/07/18 07:03:01;;;;;;;3.13;0.80;;;21.50;99.90;;;;;;5047485;28;20108;-67
2021/07/18 07:05:27;;;;;;;2.25;0.80;;;21.70;99.90;;;;;;5034651;28;20033;-52
2021/07/18 07:07:53;;;;;;;1.27;0.80;;;21.90;99.90;;;;;;5034530;28;20099;-52
2021/07/18 07:10:20;;;;;;;1.98;0.82;;;22.20;99.90;;;;;;5034267;28;20017;-52
2021/07/18 07:12:46;;;;;;;1.98;0.90;;;22.40;99.90;;;;;;5034425;28;20083;-52
2021/07/18 07:15:12;;;;;;;2.60;0.90;;;22.50;99.90;;;;;;5034293;28;20029;-53
2021/07/18 07:17:39;;;;;;;4.55;0.70;;;22.60;99.90;;;;;;5033695;28;20084;-52
2021/07/18 07:20:06;;;;;;;1.63;0.88;;;22.70;99.90;;;;;;5016147;28;20030;-50
2021/07/18 07:22:35;;;;;;;2.58;0.95;;;22.70;99.90;;;;;;5033913;28;20136;-53
2021/07/18 07:25:08;;;;;;;4.93;0.70;;;22.80;99.90;;;;;;5015980;28;20033;-56
2021/07/18 07:27:34;;;;;;;2.97;0.90;;;22.80;99.90;;;;;;5015929;28;20057;-53
2021/07/18 07:30:01;;;;;;;4.32;1.02;;;22.90;99.90;;;;;;5016271;28;20026;-53
2021/07/18 07:32:26;;;;;;;3.38;1.38;;;22.90;99.90;;;;;;5033398;28;20022;-53
2021/07/18 07:34:52;;;;;;;4.60;1.05;;;23.00;99.90;;;;;;5033800;28;20383;-53
2021/07/18 07:37:18;;;;;;;3.67;0.98;;;23.00;99.90;;;;;;5033832;28;20519;-53
2021/07/18 07:39:44;;;;;;;2.50;1.23;;;23.20;99.90;;;;;;5015292;28;20025;-57
2021/07/18 07:42:09;;;;;;;3.70;1.00;;;23.20;99.80;;;;;;5015898;28;20033;-54
2021/07/18 07:44:35;;;;;;;4.13;0.70;;;23.10;99.90;;;;;;5015360;28;20021;-55
2021/07/18 07:47:01;;;;;;;4.97;1.05;;;23.20;99.90;;;;;;5016087;28;20132;-55
2021/07/18 07:49:27;;;;;;;4.70;0.85;;;23.40;99.90;;;;;;5032888;28;20025;-53
2021/07/18 07:51:52;;;;;;;4.43;0.80;;;23.40;99.70;;;;;;5033370;28;20029;-52
2021/07/18 07:54:19;;;;;;;2.88;0.98;;;23.40;99.90;;;;;;5033751;28;20050;-53
2021/07/18 07:56:44;;;;;;;4.03;0.55;;;23.50;99.90;;;;;;5015025;28;20045;-53
2021/07/18 07:59:10;;;;;;;13.60;0.85;;;23.70;99.50;;;;;;5015229;28;20052;-54
2021/07/18 08:01:36;;;;;;;3.15;1.33;;;23.90;99.60;;;;;;5014978;28;20079;-54
2021/07/18 08:04:01;;;;;;;3.92;0.93;;;24.00;99.90;;;;;;5032946;28;20029;-55
2021/07/18 08:06:27;;;;;;;1.67;0.70;;;24.10;99.20;;;;;;5033255;28;20471;-53
2021/07/18 08:08:52;;;;;;;3.60;0.95;;;24.30;99.40;;;;;;5032881;28;20045;-52
2021/07/18 08:11:18;;;;;;;7.88;0.88;;;24.40;99.40;;;;;;5033092;28;20408;-54
2021/07/18 08:13:44;;;;;;;6.30;1.15;;;24.50;98.60;;;;;;5014548;28;20052;-53
2021/07/18 08:16:10;;;;;;;8.98;1.17;;;24.70;99.60;;;;;;5032932;28;20411;-54
2021/07/18 08:18:38;;;;;;;1.27;0.55;;;24.80;97.80;;;;;;5032737;28;20048;-55
2021/07/18 08:21:04;;;;;;;2.15;1.15;;;24.90;97.50;;;;;;5014583;28;20038;-54
2021/07/18 08:23:31;;;;;;;1.80;0.70;;;25.00;97.40;;;;;;5032036;28;20028;-61
2021/07/18 08:25:56;;;;;;;2.63;0.60;;;25.20;97.40;;;;;;5014243;28;20476;-53
2021/07/18 08:28:24;;;;;;;5.07;0.93;;;25.40;97.00;;;;;;5031859;28;20068;-54
2021/07/18 08:30:50;;;;;;;2.40;0.80;;;25.60;96.60;;;;;;5013319;28;20060;-52
2021/07/18 08:33:16;;;;;;;2.97;0.85;;;25.70;96.10;;;;;;5031943;28;20029;-53
2021/07/18 08:35:42;;;;;;;2.03;1.15;;;25.80;97.00;;;;;;5035454;28;20029;-54
2021/07/18 08:38:07;;;;;;;2.67;0.90;;;25.90;96.20;;;;;;5043003;28;20020;-53
2021/07/18 08:40:35;;;;;;;0.68;0.50;;;25.90;95.90;;;;;;5024005;28;20111;-54
2021/07/18 08:43:02;;;;;;;2.80;0.40;;;25.90;96.50;;;;;;5020085;28;20124;-56
2021/07/18 08:45:28;;;;;;;2.60;0.60;;;25.90;96.10;;;;;;5019253;28;20031;-64
2021/07/18 08:47:54;;;;;;;5.88;1.08;;;26.00;96.10;;;;;;5027821;28;20029;-56
2021/07/18 08:50:19;;;;;;;3.85;0.90;;;26.00;95.30;;;;;;5033556;28;20113;-56
2021/07/18 08:52:52;;;;;;;1.58;0.60;;;26.00;95.40;;;;;;5015488;28;20504;-55
2021/07/18 08:55:20;;;;;;;1.63;0.75;;;26.00;95.20;;;;;;5037191;28;20099;-55
2021/07/18 08:57:46;;;;;;;8.32;0.88;;;26.00;94.80;;;;;;5061188;28;20024;-53
2021/07/18 09:00:18;;;;;;;3.42;0.77;;;26.00;95.50;;;;;;5066740;28;20051;-55
2021/07/18 09:02:46;;;;;;;4.53;0.70;;;26.20;95.10;;;;;;5054626;28;20151;-56
2021/07/18 09:05:12;;;;;;;2.45;1.00;;;26.30;94.80;;;;;;5036156;28;20047;-54
2021/07/18 09:07:50;;;;;;;1.75;0.68;;;26.40;94.90;;;;;;5052446;28;20021;-59
2021/07/18 09:10:22;;;;;;;8.55;0.82;;;26.40;94.70;;;;;;5051318;28;20028;-58
2021/07/18 09:13:09;;;;;;;6.93;0.75;;;26.50;94.60;;;;;;5050704;28;20596;-60
2021/07/18 09:15:50;;;;;;;13.55;1.13;;;26.70;94.80;;;;;;5050765;28;20106;-55
2021/07/18 09:18:25;;;;;;;8.88;0.90;;;26.80;94.80;;;;;;5054410;28;20403;-55
2021/07/18 09:20:53;;;;;;;7.13;1.60;;;27.00;94.50;;;;;;5056152;28;20378;-61
2021/07/18 09:23:21;;;;;;;3.67;1.80;;;27.20;94.40;;;;;;5058205;28;20072;-51
2021/07/18 09:25:48;;;;;;;7.50;1.55;;;27.50;93.70;;;;;;5056370;28;20024;-54
2021/07/18 09:28:20;;;;;;;3.72;1.20;;;27.50;93.50;;;;;;5057422;28;20110;-53
2021/07/18 09:30:47;;;;;;;3.00;0.93;;;27.50;93.10;;;;;;5055860;28;20029;-57
2021/07/18 09:33:39;;;;;;;2.90;0.50;;;27.40;92.90;;;;;;5061093;28;20017;-57
2021/07/18 09:36:12;;;;;;;1.45;0.63;;;27.40;92.80;;;;;;5054155;28;20037;-53
2021/07/18 09:38:40;;;;;;;2.85;0.73;;;27.60;92.90;;;;;;5051317;28;20035;-54
2021/07/18 09:41:06;;;;;;;3.05;0.60;;;27.70;92.70;;;;;;5063688;28;20033;-65
2021/07/18 09:43:31;;;;;;;2.72;0.98;;;27.50;92.50;;;;;;5055263;28;20033;-59
2021/07/18 09:46:07;;;;;;;1.75;0.65;;;27.40;92.70;;;;;;5059330;28;20040;-52
2021/07/18 09:48:38;;;;;;;3.15;0.90;;;27.60;92.70;;;;;;5060351;28;20048;-54
2021/07/18 09:51:12;;;;;;;1.85;0.90;;;27.60;92.50;;;;;;5058011;28;20024;-63
2021/07/18 09:53:40;;;;;;;2.75;0.88;;;27.80;92.50;;;;;;5061077;28;20031;-57
2021/07/18 09:56:20;;;;;;;2.20;0.60;;;27.90;92.00;;;;;;5047550;28;20479;-56
2021/07/18 09:58:57;;;;;;;1.60;0.87;;;27.90;91.70;;;;;;5012883;28;20049;-57
2021/07/18 10:01:24;;;;;;;1.30;0.50;;;27.80;92.00;;;;;;5040964;28;20807;-55
2021/07/18 10:03:52;;;;;;;2.40;0.65;;;28.00;92.00;;;;;;5016944;28;20037;-55
2021/07/18 10:06:19;;;;;;;9.85;0.90;;;28.00;91.70;;;;;;5027135;28;20033;-55
2021/07/18 10:08:50;;;;;;;3.90;0.75;;;28.00;91.50;;;;;;5015136;28;20025;-55
2021/07/18 10:11:21;;;;;;;6.90;0.60;;;28.10;91.20;;;;;;5043765;28;20026;-54
2021/07/18 10:13:49;;;;;;;3.25;0.90;;;28.20;91.20;;;;;;5035357;28;20192;-59
2021/07/18 10:16:16;;;;;;;1.95;0.77;;;28.20;90.80;;;;;;5026191;28;20041;-55
2021/07/18 10:18:44;;;;;;;2.63;0.57;;;28.40;90.80;;;;;;5029054;28;20029;-55
2021/07/18 10:21:12;;;;;;;4.15;0.55;;;28.40;90.70;;;;;;5018632;28;20040;-59
2021/07/18 10:23:42;;;;;;;4.05;0.73;;;28.50;90.40;;;;;;5041169;28;20036;-55
2021/07/18 10:26:13;;;;;;;3.38;0.50;;;28.70;90.40;;;;;;5026119;28;20033;-56
2021/07/18 10:28:39;;;;;;;1.98;0.80;;;28.70;90.40;;;;;;5016430;28;20037;-55
2021/07/18 10:31:10;;;;;;;4.32;0.90;;;28.70;90.10;;;;;;5030553;28;20080;-54
2021/07/18 10:33:37;;;;;;;1.80;0.30;;;28.70;90.10;;;;;;5023703;28;20128;-53
2021/07/18 10:36:03;;;;;;;2.78;0.82;;;28.80;90.10;;;;;;5029236;28;20036;-55
2021/07/18 10:38:34;;;;;;;2.10;0.68;;;29.10;90.30;;;;;;5017474;28;20128;-66
2021/07/18 10:41:00;;;;;;;2.25;0.68;;;29.30;88.70;;;;;;5037364;28;20020;-55
2021/07/18 10:44:09;;;;;;;1.23;0.52;;;29.10;89.30;;;;;;5027293;28;20048;-67
2021/07/18 10:46:40;;;;;;;2.30;0.90;;;29.20;88.70;;;;;;4968368;28;20038;-55
2021/07/18 10:49:12;;;;;;;3.35;1.60;;;29.20;88.60;;;;;;5030060;28;20025;-53
2021/07/18 10:51:39;;;;;;;2.85;0.80;;;29.30;88.80;;;;;;5024146;28;20206;-56
2021/07/18 10:54:19;;;;;;;1.75;0.73;;;29.50;88.80;;;;;;5035135;28;20060;-57
2021/07/18 10:56:47;;;;;;;2.00;0.73;;;29.70;88.20;;;;;;5033955;28;20313;-56
2021/07/18 10:59:41;;;;;;;2.33;0.60;;;29.80;87.50;;;;;;5021059;28;20029;-55
2021/07/18 11:02:11;;;;;;;3.25;0.70;;;29.80;86.20;;;;;;5011649;28;20059;-54
2021/07/18 11:04:53;;;;;;;1.30;0.82;;;29.80;86.10;;;;;;5031795;28;20490;-60
2021/07/18 11:07:23;;;;;;;1.33;0.50;;;29.90;87.00;;;;;;5028016;28;20060;-55
2021/07/18 11:09:50;;;;;;;1.20;0.60;;;29.90;85.70;;;;;;5024396;28;20047;-56
2021/07/18 11:12:31;;;;;;;1.58;0.80;;;30.00;86.10;;;;;;5018987;28;20633;-56
2021/07/18 11:15:12;;;;;;;3.00;0.70;;;30.00;85.80;;;;;;5036213;28;20017;-56
2021/07/18 11:17:54;;;;;;;3.03;0.65;;;29.90;86.00;;;;;;5024579;28;20060;-55
2021/07/18 11:20:40;;;;;;;1.63;0.80;;;30.10;85.40;;;;;;5014709;28;20115;-57
2021/07/18 11:23:08;;;;;;;6.97;1.00;;;30.10;85.60;;;;;;5016578;28;20030;-57
2021/07/18 11:26:02;;;;;;;3.90;0.90;;;30.00;85.10;;;;;;5041180;28;20591;-57
2021/07/18 11:28:37;;;;;;;1.80;0.65;;;30.00;85.40;;;;;;5033820;28;20064;-66
2021/07/18 11:31:12;;;;;;;1.45;0.55;;;30.10;85.50;;;;;;5015889;28;20021;-56
2021/07/18 11:33:43;;;;;;;3.40;0.80;;;30.30;85.10;;;;;;5017398;28;20117;-59
2021/07/18 11:36:10;;;;;;;1.50;0.82;;;30.40;84.60;;;;;;5029319;28;20037;-53
2021/07/18 11:38:36;;;;;;;2.15;1.20;;;30.40;84.00;;;;;;5035482;28;20120;-53
2021/07/18 11:41:20;;;;;;;137.52;124.88;;;30.40;84.20;;;;;;5033820;28;20074;-54
2021/07/18 11:43:53;;;;;;;18.20;12.90;;;30.60;84.50;;;;;;5041050;28;20320;-54
2021/07/18 11:46:22;;;;;;;67.85;44.58;;;30.60;84.70;;;;;;5029389;28;20488;-57
2021/07/18 11:48:50;;;;;;;11.65;6.97;;;30.40;88.80;;;;;;5014968;28;20021;-55
2021/07/18 11:51:20;;;;;;;10.25;6.38;;;30.40;84.10;;;;;;5021190;28;20501;-55
2021/07/18 11:53:47;;;;;;;6.18;5.13;;;30.50;83.20;;;;;;5040779;28;20018;-54
2021/07/18 11:56:27;;;;;;;5.72;2.58;;;30.40;85.00;;;;;;5028148;28;20037;-56
2021/07/18 11:58:58;;;;;;;3.75;2.80;;;30.50;83.60;;;;;;5029668;28;20086;-56
2021/07/18 12:01:27;;;;;;;4.70;2.20;;;30.50;82.90;;;;;;5039242;28;20055;-54
2021/07/18 12:03:53;;;;;;;3.08;2.40;;;30.40;82.70;;;;;;5025919;28;20025;-56
2021/07/18 12:06:27;;;;;;;4.72;2.63;;;30.50;83.20;;;;;;5040291;28;20509;-57
2021/07/18 12:08:57;;;;;;;3.75;1.42;;;30.50;84.20;;;;;;5040791;28;20108;-57
2021/07/18 12:11:32;;;;;;;5.97;1.58;;;30.50;82.50;;;;;;5044997;28;20034;-56
2021/07/18 12:13:59;;;;;;;3.13;0.98;;;30.60;82.80;;;;;;5025948;28;20071;-54
2021/07/18 12:16:26;;;;;;;1.83;0.98;;;30.50;82.30;;;;;;5035109;28;20030;-67
2021/07/18 12:18:54;;;;;;;2.88;0.93;;;30.60;81.90;;;;;;5050612;28;20021;-56
2021/07/18 12:21:21;;;;;;;3.47;1.42;;;30.60;80.90;;;;;;5044633;28;20021;-56
2021/07/18 12:24:25;;;;;;;2.65;1.17;;;30.70;82.10;;;;;;5031103;28;20087;-56
2021/07/18 12:26:53;;;;;;;5.40;1.27;;;30.50;81.40;;;;;;5047194;28;20025;-56
2021/07/18 12:29:21;;;;;;;3.65;1.17;;;30.70;80.80;;;;;;5020811;28;20021;-56
2021/07/18 12:31:52;;;;;;;4.20;1.08;;;30.70;81.10;;;;;;5039136;28;20458;-57
2021/07/18 12:34:24;;;;;;;2.63;0.70;;;30.80;80.90;;;;;;5022585;28;20029;-55
2021/07/18 12:37:01;;;;;;;3.88;0.85;;;30.90;79.50;;;;;;5032775;28;20118;-54
2021/07/18 12:39:33;;;;;;;1.13;0.60;;;30.80;79.00;;;;;;5031912;28;20029;-64
2021/07/18 12:42:01;;;;;;;3.00;0.95;;;30.90;78.70;;;;;;5019794;28;20025;-54
2021/07/18 12:44:30;;;;;;;2.03;1.00;;;30.90;79.20;;;;;;5028287;28;20462;-63
2021/07/18 12:47:33;;;;;;;2.65;0.90;;;30.90;79.10;;;;;;5017167;28;20029;-56
2021/07/18 12:50:28;;;;;;;1.27;0.77;;;30.90;78.80;;;;;;5037826;28;20463;-55